sensor_id;sensor_type;location;lat;lon;timestamp;P1;durP1;ratioP1;P2;durP2;ratioP2
18048;SDS011;9149;47.002;8.604;2023-08-30T00:02:06;0.95;;;0.90;;
18048;SDS011;9149;47.002;8.604;2023-08-30T00:04:35;0.93;;;0.85;;
18048;SDS011;9149;47.002;8.604;2023-08-30T00:07:03;0.73;;;0.73;;
18048;SDS011;9149;47.002;8.604;2023-08-30T00:09:30;1.10;;;1.00;;
18048;SDS011;9149;47.002;8.604;2023-08-30T00:11:58;0.75;;;0.75;;
18048;SDS011;9149;47.002;8.604;2023-08-30T00:14:26;2.22;;;0.90;;
18048;SDS011;9149;47.002;8.604;2023-08-30T00:16:54;1.23;;;0.90;;
18048;SDS011;9149;47.002;8.604;2023-08-30T00:19:23;1.25;;;0.80;;
18048;SDS011;9149;47.002;8.604;2023-08-30T00:21:51;1.10;;;0.85;;
18048;SDS011;9149;47.002;8.604;2023-08-30T00:24:18;1.02;;;0.85;;
18048;SDS011;9149;47.002;8.604;2023-08-30T00:26:46;1.02;;;0.80;;
18048;SDS011;9149;47.002;8.604;2023-08-30T00:29:14;1.13;;;0.90;;
18048;SDS011;9149;47.002;8.604;2023-08-30T00:31:41;1.50;;;0.93;;
18048;SDS011;9149;47.002;8.604;2023-08-30T00:34:09;1.15;;;0.80;;
18048;SDS011;9149;47.002;8.604;2023-08-30T00:36:38;1.20;;;0.90;;
18048;SDS011;9149;47.002;8.604;2023-08-30T00:39:06;0.98;;;0.90;;
18048;SDS011;9149;47.002;8.604;2023-08-30T00:41:34;0.95;;;0.85;;
18048;SDS011;9149;47.002;8.604;2023-08-30T00:44:02;1.75;;;1.08;;
18048;SDS011;9149;47.002;8.604;2023-08-30T00:46:30;1.33;;;0.95;;
18048;SDS011;9149;47.002;8.604;2023-08-30T00:48:58;0.80;;;0.80;;
18048;SDS011;9149;47.002;8.604;2023-08-30T00:51:27;0.93;;;0.93;;
18048;SDS011;9149;47.002;8.604;2023-08-30T00:53:56;1.20;;;1.10;;
18048;SDS011;9149;47.002;8.604;2023-08-30T00:56:24;2.35;;;1.08;;
18048;SDS011;9149;47.002;8.604;2023-08-30T00:58:52;1.25;;;0.95;;
18048;SDS011;9149;47.002;8.604;2023-08-30T01:01:20;1.02;;;0.93;;
18048;SDS011;9149;47.002;8.604;2023-08-30T01:03:48;5.30;;;1.27;;
18048;SDS011;9149;47.002;8.604;2023-08-30T01:06:18;1.38;;;0.90;;
18048;SDS011;9149;47.002;8.604;2023-08-30T01:08:46;1.80;;;0.90;;
18048;SDS011;9149;47.002;8.604;2023-08-30T01:11:17;1.05;;;0.77;;
18048;SDS011;9149;47.002;8.604;2023-08-30T01:13:47;0.88;;;0.88;;
18048;SDS011;9149;47.002;8.604;2023-08-30T01:16:17;0.80;;;0.80;;
18048;SDS011;9149;47.002;8.604;2023-08-30T01:18:46;9.30;;;1.10;;
18048;SDS011;9149;47.002;8.604;2023-08-30T01:21:19;1.25;;;0.90;;
18048;SDS011;9149;47.002;8.604;2023-08-30T01:23:49;0.70;;;0.70;;
18048;SDS011;9149;47.002;8.604;2023-08-30T01:26:24;0.80;;;0.80;;
18048;SDS011;9149;47.002;8.604;2023-08-30T01:28:55;1.00;;;0.90;;
18048;SDS011;9149;47.002;8.604;2023-08-30T01:31:24;1.17;;;1.08;;
18048;SDS011;9149;47.002;8.604;2023-08-30T01:33:53;2.85;;;0.90;;
18048;SDS011;9149;47.002;8.604;2023-08-30T01:36:22;2.85;;;0.90;;
18048;SDS011;9149;47.002;8.604;2023-08-30T01:38:50;1.00;;;0.90;;
18048;SDS011;9149;47.002;8.604;2023-08-30T01:41:18;1.70;;;0.90;;
18048;SDS011;9149;47.002;8.604;2023-08-30T01:43:46;1.00;;;0.90;;
18048;SDS011;9149;47.002;8.604;2023-08-30T01:46:15;1.13;;;1.00;;
18048;SDS011;9149;47.002;8.604;2023-08-30T01:48:44;3.63;;;1.00;;
18048;SDS011;9149;47.002;8.604;2023-08-30T01:51:12;1.00;;;0.90;;
18048;SDS011;9149;47.002;8.604;2023-08-30T01:53:41;1.85;;;0.85;;
18048;SDS011;9149;47.002;8.604;2023-08-30T01:56:09;0.90;;;0.77;;
18048;SDS011;9149;47.002;8.604;2023-08-30T01:58:36;1.50;;;0.95;;
18048;SDS011;9149;47.002;8.604;2023-08-30T02:01:04;1.10;;;0.80;;
18048;SDS011;9149;47.002;8.604;2023-08-30T02:03:33;1.30;;;0.93;;
18048;SDS011;9149;47.002;8.604;2023-08-30T02:06:02;0.82;;;0.80;;
18048;SDS011;9149;47.002;8.604;2023-08-30T02:08:34;1.40;;;0.90;;
18048;SDS011;9149;47.002;8.604;2023-08-30T02:11:04;2.47;;;1.13;;
18048;SDS011;9149;47.002;8.604;2023-08-30T02:13:34;2.53;;;0.80;;
18048;SDS011;9149;47.002;8.604;2023-08-30T02:16:02;0.80;;;0.80;;
18048;SDS011;9149;47.002;8.604;2023-08-30T02:18:32;0.80;;;0.80;;
18048;SDS011;9149;47.002;8.604;2023-08-30T02:21:00;0.75;;;0.75;;
18048;SDS011;9149;47.002;8.604;2023-08-30T02:23:28;1.08;;;0.90;;
18048;SDS011;9149;47.002;8.604;2023-08-30T02:25:56;1.15;;;0.90;;
18048;SDS011;9149;47.002;8.604;2023-08-30T02:28:24;3.30;;;1.00;;
18048;SDS011;9149;47.002;8.604;2023-08-30T02:30:52;1.10;;;1.00;;
18048;SDS011;9149;47.002;8.604;2023-08-30T02:33:20;1.13;;;0.93;;
18048;SDS011;9149;47.002;8.604;2023-08-30T02:36:07;0.75;;;0.75;;
18048;SDS011;9149;47.002;8.604;2023-08-30T02:38:35;3.90;;;0.90;;
18048;SDS011;9149;47.002;8.604;2023-08-30T02:41:20;2.45;;;1.15;;
18048;SDS011;9149;47.002;8.604;2023-08-30T02:43:47;1.08;;;0.90;;
18048;SDS011;9149;47.002;8.604;2023-08-30T02:46:15;1.95;;;0.90;;
18048;SDS011;9149;47.002;8.604;2023-08-30T02:48:44;0.90;;;0.80;;
18048;SDS011;9149;47.002;8.604;2023-08-30T02:51:13;0.88;;;0.80;;
18048;SDS011;9149;47.002;8.604;2023-08-30T02:53:40;1.00;;;0.95;;
18048;SDS011;9149;47.002;8.604;2023-08-30T02:56:08;1.42;;;1.00;;
18048;SDS011;9149;47.002;8.604;2023-08-30T02:58:37;0.70;;;0.70;;
18048;SDS011;9149;47.002;8.604;2023-08-30T03:01:05;1.08;;;0.98;;
18048;SDS011;9149;47.002;8.604;2023-08-30T03:03:33;0.80;;;0.80;;
18048;SDS011;9149;47.002;8.604;2023-08-30T03:06:01;0.75;;;0.75;;
18048;SDS011;9149;47.002;8.604;2023-08-30T03:08:30;1.02;;;0.82;;
18048;SDS011;9149;47.002;8.604;2023-08-30T03:11:07;0.85;;;0.85;;
18048;SDS011;9149;47.002;8.604;2023-08-30T03:13:34;1.48;;;0.90;;
18048;SDS011;9149;47.002;8.604;2023-08-30T03:16:09;0.85;;;0.80;;
18048;SDS011;9149;47.002;8.604;2023-08-30T03:18:37;1.60;;;0.70;;
18048;SDS011;9149;47.002;8.604;2023-08-30T03:21:05;2.55;;;0.93;;
18048;SDS011;9149;47.002;8.604;2023-08-30T03:23:34;1.73;;;1.10;;
18048;SDS011;9149;47.002;8.604;2023-08-30T03:26:07;3.58;;;1.00;;
18048;SDS011;9149;47.002;8.604;2023-08-30T03:28:35;2.83;;;0.85;;
18048;SDS011;9149;47.002;8.604;2023-08-30T03:31:10;1.00;;;0.90;;
18048;SDS011;9149;47.002;8.604;2023-08-30T03:33:38;4.22;;;0.93;;
18048;SDS011;9149;47.002;8.604;2023-08-30T03:36:11;1.23;;;1.08;;
18048;SDS011;9149;47.002;8.604;2023-08-30T03:38:40;1.27;;;1.05;;
18048;SDS011;9149;47.002;8.604;2023-08-30T03:41:08;1.23;;;0.90;;
18048;SDS011;9149;47.002;8.604;2023-08-30T03:43:36;1.10;;;1.00;;
18048;SDS011;9149;47.002;8.604;2023-08-30T03:46:04;3.28;;;0.98;;
18048;SDS011;9149;47.002;8.604;2023-08-30T03:48:32;0.90;;;0.80;;
18048;SDS011;9149;47.002;8.604;2023-08-30T03:51:00;1.67;;;0.90;;
18048;SDS011;9149;47.002;8.604;2023-08-30T03:53:27;1.40;;;0.90;;
18048;SDS011;9149;47.002;8.604;2023-08-30T03:55:59;1.10;;;1.00;;
18048;SDS011;9149;47.002;8.604;2023-08-30T03:58:27;1.38;;;0.90;;
18048;SDS011;9149;47.002;8.604;2023-08-30T04:00:55;1.30;;;0.82;;
18048;SDS011;9149;47.002;8.604;2023-08-30T04:03:23;2.65;;;0.85;;
18048;SDS011;9149;47.002;8.604;2023-08-30T04:05:54;0.98;;;0.90;;
18048;SDS011;9149;47.002;8.604;2023-08-30T04:08:22;2.90;;;1.20;;
18048;SDS011;9149;47.002;8.604;2023-08-30T04:10:51;4.10;;;1.00;;
18048;SDS011;9149;47.002;8.604;2023-08-30T04:13:20;1.60;;;1.17;;
18048;SDS011;9149;47.002;8.604;2023-08-30T04:15:48;1.23;;;1.00;;
18048;SDS011;9149;47.002;8.604;2023-08-30T04:18:16;1.00;;;0.90;;
18048;SDS011;9149;47.002;8.604;2023-08-30T04:20:44;0.80;;;0.80;;
18048;SDS011;9149;47.002;8.604;2023-08-30T04:23:13;1.05;;;0.82;;
18048;SDS011;9149;47.002;8.604;2023-08-30T04:25:40;1.20;;;0.90;;
18048;SDS011;9149;47.002;8.604;2023-08-30T04:28:09;0.90;;;0.80;;
18048;SDS011;9149;47.002;8.604;2023-08-30T04:30:38;1.30;;;0.90;;
18048;SDS011;9149;47.002;8.604;2023-08-30T04:33:07;3.80;;;1.15;;
18048;SDS011;9149;47.002;8.604;2023-08-30T04:35:35;1.08;;;0.98;;
18048;SDS011;9149;47.002;8.604;2023-08-30T04:38:02;1.52;;;0.90;;
18048;SDS011;9149;47.002;8.604;2023-08-30T04:40:30;1.95;;;1.05;;
18048;SDS011;9149;47.002;8.604;2023-08-30T04:42:59;1.08;;;0.90;;
18048;SDS011;9149;47.002;8.604;2023-08-30T04:45:27;1.10;;;0.95;;
18048;SDS011;9149;47.002;8.604;2023-08-30T04:47:57;2.85;;;1.00;;
18048;SDS011;9149;47.002;8.604;2023-08-30T04:50:26;1.50;;;1.00;;
18048;SDS011;9149;47.002;8.604;2023-08-30T04:52:54;1.13;;;1.02;;
18048;SDS011;9149;47.002;8.604;2023-08-30T04:55:23;1.08;;;0.88;;
18048;SDS011;9149;47.002;8.604;2023-08-30T04:57:51;2.88;;;1.33;;
18048;SDS011;9149;47.002;8.604;2023-08-30T05:00:19;3.20;;;0.85;;
18048;SDS011;9149;47.002;8.604;2023-08-30T05:02:47;1.08;;;0.90;;
18048;SDS011;9149;47.002;8.604;2023-08-30T05:05:16;1.10;;;0.93;;
18048;SDS011;9149;47.002;8.604;2023-08-30T05:07:44;1.42;;;1.13;;
18048;SDS011;9149;47.002;8.604;2023-08-30T05:10:12;3.72;;;1.25;;
18048;SDS011;9149;47.002;8.604;2023-08-30T05:12:40;0.80;;;0.80;;
18048;SDS011;9149;47.002;8.604;2023-08-30T05:15:10;0.77;;;0.77;;
18048;SDS011;9149;47.002;8.604;2023-08-30T05:17:39;1.33;;;0.90;;
18048;SDS011;9149;47.002;8.604;2023-08-30T05:20:07;0.90;;;0.90;;
18048;SDS011;9149;47.002;8.604;2023-08-30T05:22:36;1.10;;;0.90;;
18048;SDS011;9149;47.002;8.604;2023-08-30T05:25:04;1.02;;;0.93;;
18048;SDS011;9149;47.002;8.604;2023-08-30T05:27:32;1.02;;;0.90;;
18048;SDS011;9149;47.002;8.604;2023-08-30T05:30:00;1.17;;;0.95;;
18048;SDS011;9149;47.002;8.604;2023-08-30T05:32:29;1.13;;;1.00;;
18048;SDS011;9149;47.002;8.604;2023-08-30T05:35:10;0.95;;;0.90;;
18048;SDS011;9149;47.002;8.604;2023-08-30T05:37:50;1.25;;;1.10;;
18048;SDS011;9149;47.002;8.604;2023-08-30T05:40:27;1.10;;;1.00;;
18048;SDS011;9149;47.002;8.604;2023-08-30T05:42:55;1.05;;;0.93;;
18048;SDS011;9149;47.002;8.604;2023-08-30T05:45:23;0.90;;;0.90;;
18048;SDS011;9149;47.002;8.604;2023-08-30T05:47:52;1.92;;;0.88;;
18048;SDS011;9149;47.002;8.604;2023-08-30T05:50:19;1.63;;;0.90;;
18048;SDS011;9149;47.002;8.604;2023-08-30T05:52:47;1.50;;;0.80;;
18048;SDS011;9149;47.002;8.604;2023-08-30T05:55:17;1.10;;;1.00;;
18048;SDS011;9149;47.002;8.604;2023-08-30T05:57:44;3.38;;;1.00;;
18048;SDS011;9149;47.002;8.604;2023-08-30T06:00:12;1.25;;;0.93;;
18048;SDS011;9149;47.002;8.604;2023-08-30T06:02:41;2.17;;;0.90;;
18048;SDS011;9149;47.002;8.604;2023-08-30T06:05:08;0.80;;;0.80;;
18048;SDS011;9149;47.002;8.604;2023-08-30T06:07:36;2.58;;;1.27;;
18048;SDS011;9149;47.002;8.604;2023-08-30T06:10:04;1.50;;;0.93;;
18048;SDS011;9149;47.002;8.604;2023-08-30T06:12:33;1.40;;;0.90;;
18048;SDS011;9149;47.002;8.604;2023-08-30T06:15:01;1.08;;;1.00;;
18048;SDS011;9149;47.002;8.604;2023-08-30T06:17:30;1.02;;;0.90;;
18048;SDS011;9149;47.002;8.604;2023-08-30T06:19:58;1.27;;;0.88;;
18048;SDS011;9149;47.002;8.604;2023-08-30T06:22:25;1.08;;;0.80;;
18048;SDS011;9149;47.002;8.604;2023-08-30T06:24:53;1.10;;;0.80;;
18048;SDS011;9149;47.002;8.604;2023-08-30T06:27:21;1.60;;;0.80;;
18048;SDS011;9149;47.002;8.604;2023-08-30T06:29:49;1.17;;;0.80;;
18048;SDS011;9149;47.002;8.604;2023-08-30T06:32:17;1.60;;;0.70;;
18048;SDS011;9149;47.002;8.604;2023-08-30T06:34:45;1.00;;;0.90;;
18048;SDS011;9149;47.002;8.604;2023-08-30T06:37:13;5.97;;;0.70;;
18048;SDS011;9149;47.002;8.604;2023-08-30T06:39:40;1.20;;;0.77;;
18048;SDS011;9149;47.002;8.604;2023-08-30T06:42:08;0.80;;;0.63;;
18048;SDS011;9149;47.002;8.604;2023-08-30T06:44:39;4.35;;;0.70;;
18048;SDS011;9149;47.002;8.604;2023-08-30T06:47:08;4.18;;;1.00;;
18048;SDS011;9149;47.002;8.604;2023-08-30T06:49:36;0.80;;;0.80;;
18048;SDS011;9149;47.002;8.604;2023-08-30T06:52:04;3.10;;;0.70;;
18048;SDS011;9149;47.002;8.604;2023-08-30T06:54:33;1.10;;;0.73;;
18048;SDS011;9149;47.002;8.604;2023-08-30T06:57:01;1.25;;;0.80;;
18048;SDS011;9149;47.002;8.604;2023-08-30T06:59:29;1.02;;;0.77;;
18048;SDS011;9149;47.002;8.604;2023-08-30T07:01:57;0.80;;;0.60;;
18048;SDS011;9149;47.002;8.604;2023-08-30T07:04:26;1.55;;;0.80;;
18048;SDS011;9149;47.002;8.604;2023-08-30T07:06:54;0.98;;;0.70;;
18048;SDS011;9149;47.002;8.604;2023-08-30T07:09:22;2.17;;;0.80;;
18048;SDS011;9149;47.002;8.604;2023-08-30T07:11:55;0.90;;;0.70;;
18048;SDS011;9149;47.002;8.604;2023-08-30T07:14:22;0.70;;;0.63;;
18048;SDS011;9149;47.002;8.604;2023-08-30T07:16:50;1.45;;;0.70;;
18048;SDS011;9149;47.002;8.604;2023-08-30T07:19:18;4.20;;;0.85;;
18048;SDS011;9149;47.002;8.604;2023-08-30T07:21:47;1.33;;;0.80;;
18048;SDS011;9149;47.002;8.604;2023-08-30T07:24:14;2.17;;;0.98;;
18048;SDS011;9149;47.002;8.604;2023-08-30T07:26:42;1.10;;;0.70;;
18048;SDS011;9149;47.002;8.604;2023-08-30T07:29:10;0.98;;;0.80;;
18048;SDS011;9149;47.002;8.604;2023-08-30T07:31:37;2.20;;;0.70;;
18048;SDS011;9149;47.002;8.604;2023-08-30T07:34:07;1.40;;;0.75;;
18048;SDS011;9149;47.002;8.604;2023-08-30T07:36:35;0.73;;;0.70;;
18048;SDS011;9149;47.002;8.604;2023-08-30T07:39:14;2.08;;;0.80;;
18048;SDS011;9149;47.002;8.604;2023-08-30T07:41:42;6.30;;;0.80;;
18048;SDS011;9149;47.002;8.604;2023-08-30T07:44:10;0.85;;;0.60;;
18048;SDS011;9149;47.002;8.604;2023-08-30T07:46:37;1.30;;;0.73;;
18048;SDS011;9149;47.002;8.604;2023-08-30T07:49:05;0.88;;;0.73;;
18048;SDS011;9149;47.002;8.604;2023-08-30T07:51:32;0.70;;;0.70;;
18048;SDS011;9149;47.002;8.604;2023-08-30T07:54:00;3.08;;;0.77;;
18048;SDS011;9149;47.002;8.604;2023-08-30T07:56:32;0.88;;;0.75;;
18048;SDS011;9149;47.002;8.604;2023-08-30T07:59:00;0.93;;;0.80;;
18048;SDS011;9149;47.002;8.604;2023-08-30T08:01:28;1.05;;;0.70;;
18048;SDS011;9149;47.002;8.604;2023-08-30T08:03:56;3.75;;;0.70;;
18048;SDS011;9149;47.002;8.604;2023-08-30T08:06:33;0.93;;;0.77;;
18048;SDS011;9149;47.002;8.604;2023-08-30T08:09:03;0.93;;;0.73;;
18048;SDS011;9149;47.002;8.604;2023-08-30T08:11:32;2.17;;;0.75;;
18048;SDS011;9149;47.002;8.604;2023-08-30T08:14:00;3.08;;;0.63;;
18048;SDS011;9149;47.002;8.604;2023-08-30T08:16:28;0.82;;;0.68;;
18048;SDS011;9149;47.002;8.604;2023-08-30T08:18:56;0.90;;;0.50;;
18048;SDS011;9149;47.002;8.604;2023-08-30T08:21:25;1.75;;;0.60;;
18048;SDS011;9149;47.002;8.604;2023-08-30T08:23:53;1.55;;;0.60;;
18048;SDS011;9149;47.002;8.604;2023-08-30T08:26:21;0.60;;;0.50;;
18048;SDS011;9149;47.002;8.604;2023-08-30T08:28:50;2.92;;;0.50;;
18048;SDS011;9149;47.002;8.604;2023-08-30T08:31:18;1.75;;;0.70;;
18048;SDS011;9149;47.002;8.604;2023-08-30T08:33:45;1.15;;;0.55;;
18048;SDS011;9149;47.002;8.604;2023-08-30T08:36:13;0.93;;;0.50;;
18048;SDS011;9149;47.002;8.604;2023-08-30T08:38:41;0.68;;;0.47;;
18048;SDS011;9149;47.002;8.604;2023-08-30T08:41:09;0.80;;;0.60;;
18048;SDS011;9149;47.002;8.604;2023-08-30T08:43:39;1.33;;;0.70;;
18048;SDS011;9149;47.002;8.604;2023-08-30T08:46:08;0.65;;;0.50;;
18048;SDS011;9149;47.002;8.604;2023-08-30T08:48:37;0.70;;;0.50;;
18048;SDS011;9149;47.002;8.604;2023-08-30T08:51:06;0.95;;;0.52;;
18048;SDS011;9149;47.002;8.604;2023-08-30T08:53:34;1.85;;;0.57;;
18048;SDS011;9149;47.002;8.604;2023-08-30T08:56:03;0.93;;;0.60;;
18048;SDS011;9149;47.002;8.604;2023-08-30T08:58:31;0.68;;;0.50;;
18048;SDS011;9149;47.002;8.604;2023-08-30T09:00:59;1.20;;;0.55;;
18048;SDS011;9149;47.002;8.604;2023-08-30T09:03:28;0.80;;;0.50;;
18048;SDS011;9149;47.002;8.604;2023-08-30T09:05:56;0.70;;;0.50;;
18048;SDS011;9149;47.002;8.604;2023-08-30T09:08:24;0.90;;;0.77;;
18048;SDS011;9149;47.002;8.604;2023-08-30T09:10:52;0.75;;;0.50;;
18048;SDS011;9149;47.002;8.604;2023-08-30T09:13:19;0.93;;;0.57;;
18048;SDS011;9149;47.002;8.604;2023-08-30T09:15:49;0.57;;;0.57;;
18048;SDS011;9149;47.002;8.604;2023-08-30T09:18:17;1.17;;;0.50;;
18048;SDS011;9149;47.002;8.604;2023-08-30T09:20:46;0.60;;;0.50;;
18048;SDS011;9149;47.002;8.604;2023-08-30T09:23:17;0.68;;;0.65;;
18048;SDS011;9149;47.002;8.604;2023-08-30T09:25:46;1.20;;;0.60;;
18048;SDS011;9149;47.002;8.604;2023-08-30T09:28:14;0.57;;;0.50;;
18048;SDS011;9149;47.002;8.604;2023-08-30T09:30:42;1.27;;;0.60;;
18048;SDS011;9149;47.002;8.604;2023-08-30T09:33:19;1.05;;;0.60;;
18048;SDS011;9149;47.002;8.604;2023-08-30T09:35:48;2.80;;;0.60;;
18048;SDS011;9149;47.002;8.604;2023-08-30T09:38:17;2.35;;;0.50;;
18048;SDS011;9149;47.002;8.604;2023-08-30T09:40:45;1.13;;;0.65;;
18048;SDS011;9149;47.002;8.604;2023-08-30T09:43:13;0.80;;;0.50;;
18048;SDS011;9149;47.002;8.604;2023-08-30T09:45:41;1.42;;;0.50;;
18048;SDS011;9149;47.002;8.604;2023-08-30T09:48:09;1.10;;;0.45;;
18048;SDS011;9149;47.002;8.604;2023-08-30T09:50:37;0.93;;;0.40;;
18048;SDS011;9149;47.002;8.604;2023-08-30T09:53:08;0.88;;;0.60;;
18048;SDS011;9149;47.002;8.604;2023-08-30T09:55:37;0.60;;;0.40;;
18048;SDS011;9149;47.002;8.604;2023-08-30T09:58:05;0.68;;;0.50;;
18048;SDS011;9149;47.002;8.604;2023-08-30T10:00:33;0.40;;;0.40;;
18048;SDS011;9149;47.002;8.604;2023-08-30T10:03:01;0.90;;;0.47;;
18048;SDS011;9149;47.002;8.604;2023-08-30T10:05:49;0.95;;;0.52;;
18048;SDS011;9149;47.002;8.604;2023-08-30T10:08:18;0.30;;;0.30;;
18048;SDS011;9149;47.002;8.604;2023-08-30T10:10:46;1.17;;;0.40;;
18048;SDS011;9149;47.002;8.604;2023-08-30T10:13:14;0.68;;;0.40;;
18048;SDS011;9149;47.002;8.604;2023-08-30T10:15:44;0.32;;;0.32;;
18048;SDS011;9149;47.002;8.604;2023-08-30T10:18:14;0.60;;;0.40;;
18048;SDS011;9149;47.002;8.604;2023-08-30T10:20:43;0.60;;;0.40;;
18048;SDS011;9149;47.002;8.604;2023-08-30T10:23:12;0.50;;;0.43;;
18048;SDS011;9149;47.002;8.604;2023-08-30T10:25:41;0.73;;;0.57;;
18048;SDS011;9149;47.002;8.604;2023-08-30T10:28:09;0.40;;;0.40;;
18048;SDS011;9149;47.002;8.604;2023-08-30T10:30:38;1.58;;;0.60;;
18048;SDS011;9149;47.002;8.604;2023-08-30T10:33:11;1.02;;;0.60;;
18048;SDS011;9149;47.002;8.604;2023-08-30T10:35:46;0.77;;;0.57;;
18048;SDS011;9149;47.002;8.604;2023-08-30T10:38:24;1.10;;;0.52;;
18048;SDS011;9149;47.002;8.604;2023-08-30T10:40:53;0.63;;;0.50;;
18048;SDS011;9149;47.002;8.604;2023-08-30T10:43:28;0.52;;;0.43;;
18048;SDS011;9149;47.002;8.604;2023-08-30T10:45:59;0.52;;;0.50;;
18048;SDS011;9149;47.002;8.604;2023-08-30T10:48:36;0.50;;;0.50;;
18048;SDS011;9149;47.002;8.604;2023-08-30T10:51:05;0.40;;;0.40;;
18048;SDS011;9149;47.002;8.604;2023-08-30T10:53:33;0.88;;;0.60;;
18048;SDS011;9149;47.002;8.604;2023-08-30T10:56:04;0.70;;;0.50;;
18048;SDS011;9149;47.002;8.604;2023-08-30T10:58:42;0.50;;;0.45;;
18048;SDS011;9149;47.002;8.604;2023-08-30T11:01:10;0.82;;;0.50;;
18048;SDS011;9149;47.002;8.604;2023-08-30T11:03:40;0.52;;;0.50;;
18048;SDS011;9149;47.002;8.604;2023-08-30T11:06:12;0.70;;;0.50;;
18048;SDS011;9149;47.002;8.604;2023-08-30T11:08:41;0.50;;;0.50;;
18048;SDS011;9149;47.002;8.604;2023-08-30T11:11:10;0.75;;;0.50;;
18048;SDS011;9149;47.002;8.604;2023-08-30T11:13:41;0.60;;;0.50;;
18048;SDS011;9149;47.002;8.604;2023-08-30T11:16:08;1.40;;;0.50;;
18048;SDS011;9149;47.002;8.604;2023-08-30T11:18:36;1.95;;;0.68;;
18048;SDS011;9149;47.002;8.604;2023-08-30T11:21:05;1.08;;;0.70;;
18048;SDS011;9149;47.002;8.604;2023-08-30T11:23:34;0.40;;;0.40;;
18048;SDS011;9149;47.002;8.604;2023-08-30T11:26:01;2.05;;;0.50;;
18048;SDS011;9149;47.002;8.604;2023-08-30T11:28:33;0.32;;;0.30;;
18048;SDS011;9149;47.002;8.604;2023-08-30T11:31:00;0.60;;;0.40;;
18048;SDS011;9149;47.002;8.604;2023-08-30T11:33:28;0.40;;;0.40;;
18048;SDS011;9149;47.002;8.604;2023-08-30T11:35:56;0.63;;;0.40;;
18048;SDS011;9149;47.002;8.604;2023-08-30T11:38:24;0.70;;;0.50;;
18048;SDS011;9149;47.002;8.604;2023-08-30T11:40:51;0.95;;;0.50;;
18048;SDS011;9149;47.002;8.604;2023-08-30T11:43:38;0.60;;;0.50;;
18048;SDS011;9149;47.002;8.604;2023-08-30T11:46:06;1.15;;;0.70;;
18048;SDS011;9149;47.002;8.604;2023-08-30T11:48:33;0.70;;;0.70;;
18048;SDS011;9149;47.002;8.604;2023-08-30T11:51:01;0.60;;;0.50;;
18048;SDS011;9149;47.002;8.604;2023-08-30T11:53:29;1.42;;;0.70;;
18048;SDS011;9149;47.002;8.604;2023-08-30T11:55:57;0.88;;;0.60;;
18048;SDS011;9149;47.002;8.604;2023-08-30T11:58:25;0.93;;;0.60;;
18048;SDS011;9149;47.002;8.604;2023-08-30T12:00:54;0.77;;;0.60;;
18048;SDS011;9149;47.002;8.604;2023-08-30T12:03:22;0.82;;;0.52;;
18048;SDS011;9149;47.002;8.604;2023-08-30T12:05:50;1.10;;;0.60;;
18048;SDS011;9149;47.002;8.604;2023-08-30T12:08:18;1.35;;;0.70;;
18048;SDS011;9149;47.002;8.604;2023-08-30T12:10:46;0.50;;;0.50;;
18048;SDS011;9149;47.002;8.604;2023-08-30T12:13:19;1.23;;;0.68;;
18048;SDS011;9149;47.002;8.604;2023-08-30T12:15:47;0.82;;;0.60;;
18048;SDS011;9149;47.002;8.604;2023-08-30T12:18:16;0.50;;;0.50;;
18048;SDS011;9149;47.002;8.604;2023-08-30T12:20:51;0.70;;;0.60;;
18048;SDS011;9149;47.002;8.604;2023-08-30T12:23:19;0.50;;;0.50;;
18048;SDS011;9149;47.002;8.604;2023-08-30T12:25:56;0.60;;;0.60;;
18048;SDS011;9149;47.002;8.604;2023-08-30T12:28:24;0.60;;;0.60;;
18048;SDS011;9149;47.002;8.604;2023-08-30T12:30:52;1.08;;;0.60;;
18048;SDS011;9149;47.002;8.604;2023-08-30T12:33:21;0.80;;;0.77;;
18048;SDS011;9149;47.002;8.604;2023-08-30T12:35:49;0.85;;;0.60;;
18048;SDS011;9149;47.002;8.604;2023-08-30T12:38:16;1.10;;;0.70;;
18048;SDS011;9149;47.002;8.604;2023-08-30T12:40:44;1.02;;;0.70;;
18048;SDS011;9149;47.002;8.604;2023-08-30T12:43:12;0.93;;;0.70;;
18048;SDS011;9149;47.002;8.604;2023-08-30T12:45:40;1.50;;;0.80;;
18048;SDS011;9149;47.002;8.604;2023-08-30T12:48:08;1.73;;;0.70;;
18048;SDS011;9149;47.002;8.604;2023-08-30T12:50:38;0.80;;;0.70;;
18048;SDS011;9149;47.002;8.604;2023-08-30T12:53:06;0.90;;;0.70;;
18048;SDS011;9149;47.002;8.604;2023-08-30T12:55:34;0.82;;;0.65;;
18048;SDS011;9149;47.002;8.604;2023-08-30T12:58:02;0.75;;;0.70;;
18048;SDS011;9149;47.002;8.604;2023-08-30T13:00:30;2.70;;;0.77;;
18048;SDS011;9149;47.002;8.604;2023-08-30T13:02:57;0.93;;;0.50;;
18048;SDS011;9149;47.002;8.604;2023-08-30T13:05:25;2.03;;;0.80;;
18048;SDS011;9149;47.002;8.604;2023-08-30T13:07:54;0.90;;;0.70;;
18048;SDS011;9149;47.002;8.604;2023-08-30T13:10:22;0.50;;;0.50;;
18048;SDS011;9149;47.002;8.604;2023-08-30T13:12:50;1.38;;;0.80;;
18048;SDS011;9149;47.002;8.604;2023-08-30T13:15:17;0.75;;;0.60;;
18048;SDS011;9149;47.002;8.604;2023-08-30T13:17:45;1.25;;;0.75;;
18048;SDS011;9149;47.002;8.604;2023-08-30T13:20:13;1.08;;;0.70;;
18048;SDS011;9149;47.002;8.604;2023-08-30T13:22:40;0.82;;;0.63;;
18048;SDS011;9149;47.002;8.604;2023-08-30T13:25:10;1.05;;;0.52;;
18048;SDS011;9149;47.002;8.604;2023-08-30T13:27:37;0.80;;;0.60;;
18048;SDS011;9149;47.002;8.604;2023-08-30T13:30:05;0.60;;;0.60;;
18048;SDS011;9149;47.002;8.604;2023-08-30T13:32:33;1.40;;;0.80;;
18048;SDS011;9149;47.002;8.604;2023-08-30T13:35:01;0.85;;;0.70;;
18048;SDS011;9149;47.002;8.604;2023-08-30T13:37:29;0.90;;;0.70;;
18048;SDS011;9149;47.002;8.604;2023-08-30T13:39:57;0.95;;;0.60;;
18048;SDS011;9149;47.002;8.604;2023-08-30T13:42:26;0.60;;;0.60;;
18048;SDS011;9149;47.002;8.604;2023-08-30T13:44:53;4.32;;;0.80;;
18048;SDS011;9149;47.002;8.604;2023-08-30T13:47:21;0.80;;;0.63;;
18048;SDS011;9149;47.002;8.604;2023-08-30T13:49:49;1.83;;;0.70;;
18048;SDS011;9149;47.002;8.604;2023-08-30T13:52:16;0.88;;;0.70;;
18048;SDS011;9149;47.002;8.604;2023-08-30T13:54:44;4.25;;;0.80;;
18048;SDS011;9149;47.002;8.604;2023-08-30T13:57:12;1.38;;;0.63;;
18048;SDS011;9149;47.002;8.604;2023-08-30T13:59:40;0.52;;;0.50;;
18048;SDS011;9149;47.002;8.604;2023-08-30T14:02:08;1.42;;;0.70;;
18048;SDS011;9149;47.002;8.604;2023-08-30T14:04:36;0.82;;;0.60;;
18048;SDS011;9149;47.002;8.604;2023-08-30T14:07:03;1.15;;;0.70;;
18048;SDS011;9149;47.002;8.604;2023-08-30T14:09:31;1.38;;;1.00;;
18048;SDS011;9149;47.002;8.604;2023-08-30T14:11:59;1.05;;;0.70;;
18048;SDS011;9149;47.002;8.604;2023-08-30T14:14:26;1.60;;;0.80;;
18048;SDS011;9149;47.002;8.604;2023-08-30T14:16:55;1.13;;;0.80;;
18048;SDS011;9149;47.002;8.604;2023-08-30T14:19:23;1.40;;;0.80;;
18048;SDS011;9149;47.002;8.604;2023-08-30T14:21:51;1.80;;;0.70;;
18048;SDS011;9149;47.002;8.604;2023-08-30T14:24:21;1.25;;;0.70;;
18048;SDS011;9149;47.002;8.604;2023-08-30T14:26:49;0.95;;;0.70;;
18048;SDS011;9149;47.002;8.604;2023-08-30T14:29:20;1.35;;;0.73;;
18048;SDS011;9149;47.002;8.604;2023-08-30T14:31:47;2.78;;;1.00;;
18048;SDS011;9149;47.002;8.604;2023-08-30T14:34:17;0.85;;;0.70;;
18048;SDS011;9149;47.002;8.604;2023-08-30T14:36:44;1.45;;;0.70;;
18048;SDS011;9149;47.002;8.604;2023-08-30T14:39:12;1.13;;;0.80;;
18048;SDS011;9149;47.002;8.604;2023-08-30T14:41:40;1.00;;;0.80;;
18048;SDS011;9149;47.002;8.604;2023-08-30T14:44:08;1.27;;;0.80;;
18048;SDS011;9149;47.002;8.604;2023-08-30T14:46:35;1.95;;;1.00;;
18048;SDS011;9149;47.002;8.604;2023-08-30T14:49:03;1.90;;;0.88;;
18048;SDS011;9149;47.002;8.604;2023-08-30T14:51:51;1.35;;;0.88;;
18048;SDS011;9149;47.002;8.604;2023-08-30T14:54:18;0.75;;;0.75;;
18048;SDS011;9149;47.002;8.604;2023-08-30T14:56:46;4.15;;;1.00;;
18048;SDS011;9149;47.002;8.604;2023-08-30T14:59:14;1.13;;;0.75;;
18048;SDS011;9149;47.002;8.604;2023-08-30T15:01:42;1.13;;;0.90;;
18048;SDS011;9149;47.002;8.604;2023-08-30T15:04:10;1.48;;;0.70;;
18048;SDS011;9149;47.002;8.604;2023-08-30T15:06:37;2.08;;;0.90;;
18048;SDS011;9149;47.002;8.604;2023-08-30T15:09:08;1.85;;;0.80;;
18048;SDS011;9149;47.002;8.604;2023-08-30T15:11:36;1.52;;;1.02;;